createdAt,value
2022-12-16T00:01:18.811Z,27.77
2022-12-16T00:03:49.637Z,24.90
2022-12-16T00:06:22.347Z,20.50
2022-12-16T00:08:50.160Z,27.30
2022-12-16T00:11:20.495Z,17.67
2022-12-16T00:13:48.765Z,20.53
2022-12-16T00:16:18.526Z,18.30
2022-12-16T00:18:46.802Z,21.50
2022-12-16T00:21:15.184Z,21.53
2022-12-16T00:23:44.312Z,21.17
2022-12-16T00:26:13.898Z,24.60
2022-12-16T00:28:43.690Z,23.73
2022-12-16T00:31:11.708Z,16.10
2022-12-16T00:33:39.580Z,17.47
2022-12-16T00:36:08.239Z,17.63
2022-12-16T00:38:36.017Z,20.57
2022-12-16T00:41:05.304Z,19.90
2022-12-16T00:43:33.820Z,17.50
2022-12-16T00:46:01.840Z,17.40
2022-12-16T00:48:29.665Z,16.90
2022-12-16T00:50:57.501Z,21.10
2022-12-16T00:53:26.311Z,19.63
2022-12-16T00:56:01.902Z,22.53
2022-12-16T00:58:31.286Z,17.67
2022-12-16T01:00:59.358Z,19.30
2022-12-16T01:03:27.384Z,18.53
2022-12-16T01:05:55.689Z,20.73
2022-12-16T01:08:23.694Z,19.30
2022-12-16T01:10:52.390Z,20.53
2022-12-16T01:13:21.060Z,19.73
2022-12-16T01:15:50.370Z,17.93
2022-12-16T01:18:18.967Z,19.80
2022-12-16T01:20:46.766Z,20.93
2022-12-16T01:23:14.619Z,24.50
2022-12-16T01:25:42.508Z,21.33
2022-12-16T01:28:10.345Z,21.47
2022-12-16T01:30:38.108Z,20.67
2022-12-16T01:33:07.305Z,21.93
2022-12-16T01:35:55.399Z,26.10
2022-12-16T01:38:24.181Z,21.67
2022-12-16T01:40:52.560Z,25.80
2022-12-16T01:43:25.258Z,23.30
2022-12-16T01:45:54.304Z,22.40
2022-12-16T01:48:38.551Z,25.17
2022-12-16T01:51:10.617Z,22.10
2022-12-16T01:53:42.639Z,22.30
2022-12-16T01:56:14.920Z,25.43
2022-12-16T01:58:43.893Z,23.50
2022-12-16T02:01:11.805Z,22.00
2022-12-16T02:03:42.468Z,21.57
2022-12-16T02:06:10.846Z,23.10
2022-12-16T02:08:38.774Z,23.80
2022-12-16T02:11:20.464Z,23.13
2022-12-16T02:14:14.802Z,26.27
2022-12-16T02:16:48.828Z,23.47
2022-12-16T02:19:44.420Z,24.57
2022-12-16T02:22:28.627Z,26.43
2022-12-16T02:25:26.772Z,22.00
2022-12-16T02:28:04.732Z,17.50
2022-12-16T02:31:00.094Z,18.97
2022-12-16T02:33:54.983Z,20.80
2022-12-16T02:36:32.987Z,22.80
2022-12-16T02:39:05.896Z,22.10
2022-12-16T02:41:43.601Z,22.43
2022-12-16T02:44:13.348Z,21.60
2022-12-16T02:46:44.499Z,22.37
2022-12-16T02:49:49.393Z,21.67
2022-12-16T02:52:20.520Z,22.80
2022-12-16T02:54:49.572Z,27.60
2022-12-16T02:57:31.584Z,23.63
2022-12-16T03:00:04.426Z,25.50
2022-12-16T03:02:40.094Z,23.37
2022-12-16T03:05:14.265Z,20.90
2022-12-16T03:07:44.306Z,21.70
2022-12-16T03:10:17.148Z,20.80
2022-12-16T03:12:46.634Z,23.47
2022-12-16T03:15:17.142Z,22.70
2022-12-16T03:17:49.674Z,25.90
2022-12-16T03:20:23.153Z,23.67
2022-12-16T03:22:53.304Z,22.27
2022-12-16T03:25:22.424Z,18.27
2022-12-16T03:27:58.456Z,22.40
2022-12-16T03:30:30.538Z,24.20
2022-12-16T03:33:05.243Z,25.27
2022-12-16T03:35:37.609Z,20.73
2022-12-16T03:38:09.851Z,20.17
2022-12-16T03:40:39.951Z,26.63
2022-12-16T03:43:09.002Z,23.20
2022-12-16T03:45:39.952Z,26.07
2022-12-16T03:48:11.022Z,26.57
2022-12-16T03:50:39.464Z,21.83
2022-12-16T03:53:08.337Z,26.93
2022-12-16T03:55:36.655Z,26.20
2022-12-16T03:58:04.628Z,29.47
2022-12-16T04:00:32.448Z,26.90
2022-12-16T04:03:00.534Z,32.80
2022-12-16T04:05:29.824Z,23.60
2022-12-16T04:08:01.732Z,33.10
2022-12-16T04:10:47.893Z,31.67
2022-12-16T04:13:33.675Z,29.63
2022-12-16T04:16:19.610Z,35.80
2022-12-16T04:19:06.232Z,27.30
2022-12-16T04:21:53.022Z,34.73
2022-12-16T04:24:28.206Z,29.30
2022-12-16T04:27:15.843Z,31.90
2022-12-16T04:29:57.908Z,32.50
2022-12-16T04:32:26.020Z,28.90
2022-12-16T04:34:52.868Z,31.43
2022-12-16T04:37:39.404Z,32.53
2022-12-16T04:40:24.836Z,29.57
2022-12-16T04:43:10.294Z,29.87
2022-12-16T04:45:57.234Z,29.07
2022-12-16T04:48:42.514Z,30.47
2022-12-16T04:51:27.963Z,33.07
2022-12-16T04:54:14.692Z,30.03
2022-12-16T04:57:00.177Z,28.53
2022-12-16T04:59:45.708Z,32.07
2022-12-16T05:02:31.248Z,33.50
2022-12-16T05:05:17.005Z,39.33
2022-12-16T05:08:02.015Z,40.00
2022-12-16T05:10:48.804Z,35.43
2022-12-16T05:13:34.669Z,38.30
2022-12-16T05:16:20.204Z,35.33
2022-12-16T05:19:05.733Z,39.63
2022-12-16T05:21:51.072Z,39.97
2022-12-16T05:24:36.500Z,33.57
2022-12-16T05:27:23.281Z,38.87
2022-12-16T05:30:08.650Z,38.00
2022-12-16T05:32:54.153Z,44.23
2022-12-16T05:35:41.051Z,35.73
2022-12-16T05:38:26.364Z,38.30
2022-12-16T05:41:11.745Z,41.07
2022-12-16T05:43:58.241Z,45.80
2022-12-16T05:46:43.786Z,38.83
2022-12-16T05:49:29.044Z,34.67
2022-12-16T05:52:14.576Z,39.40
2022-12-16T05:55:00.091Z,43.07
2022-12-16T05:57:45.458Z,34.10
2022-12-16T06:00:33.592Z,32.87
2022-12-16T06:03:19.057Z,39.97
2022-12-16T06:06:04.344Z,43.33
2022-12-16T06:08:49.818Z,46.80
2022-12-16T06:11:35.216Z,45.67
2022-12-16T06:14:20.835Z,40.17
2022-12-16T06:17:07.456Z,43.97
2022-12-16T06:19:52.766Z,43.73
2022-12-16T06:22:38.268Z,40.63
2022-12-16T06:25:24.078Z,39.37
2022-12-16T06:28:06.609Z,47.95
2022-12-16T06:30:51.904Z,39.10
2022-12-16T06:33:38.613Z,49.25
2022-12-16T06:36:25.024Z,43.90
2022-12-16T06:39:10.433Z,41.80
2022-12-16T06:41:55.841Z,43.27
2022-12-16T06:44:41.282Z,40.47
2022-12-16T06:47:26.720Z,42.60
2022-12-16T06:50:13.484Z,38.70
2022-12-16T06:53:00.930Z,42.37
2022-12-16T06:55:46.760Z,43.00
2022-12-16T06:58:32.078Z,41.23
2022-12-16T07:01:25.996Z,43.67
2022-12-16T07:04:11.590Z,39.37
2022-12-16T07:06:58.388Z,40.97
2022-12-16T07:09:43.894Z,41.87
2022-12-16T07:12:29.276Z,41.73
2022-12-16T07:15:14.685Z,47.00
2022-12-16T07:18:00.132Z,44.10
2022-12-16T07:20:45.728Z,40.10
2022-12-16T07:23:32.688Z,46.37
2022-12-16T07:26:18.144Z,41.77
2022-12-16T07:29:03.599Z,39.90
2022-12-16T07:31:49.161Z,35.97
2022-12-16T07:34:40.249Z,38.73
2022-12-16T07:37:26.584Z,40.20
2022-12-16T07:40:13.064Z,40.70
2022-12-16T07:42:59.871Z,40.73
2022-12-16T07:45:45.582Z,42.07
2022-12-16T07:48:30.804Z,35.03
2022-12-16T07:51:16.083Z,40.37
2022-12-16T07:54:01.548Z,38.23
2022-12-16T07:56:47.998Z,41.10
2022-12-16T07:59:33.488Z,36.07
2022-12-16T08:02:21.397Z,37.70
2022-12-16T08:05:07.000Z,32.97
2022-12-16T08:07:52.295Z,43.90
2022-12-16T08:10:37.801Z,40.63
2022-12-16T08:13:26.146Z,43.60
2022-12-16T08:16:11.889Z,40.97
2022-12-16T08:18:57.201Z,37.40
2022-12-16T08:21:42.609Z,38.23
2022-12-16T08:24:28.007Z,42.37
2022-12-16T08:27:13.296Z,36.57
2022-12-16T08:30:00.034Z,36.13
2022-12-16T08:32:45.432Z,34.47
2022-12-16T08:35:30.864Z,41.17
2022-12-16T08:38:16.909Z,38.40
2022-12-16T08:41:02.796Z,38.47
2022-12-16T08:43:50.064Z,39.27
2022-12-16T08:46:37.260Z,37.33
2022-12-16T08:49:22.703Z,38.30
2022-12-16T08:52:07.292Z,36.63
2022-12-16T08:54:52.741Z,39.00
2022-12-16T08:57:38.637Z,37.77
2022-12-16T09:00:25.125Z,40.67
2022-12-16T09:03:13.981Z,43.93
2022-12-16T09:05:59.272Z,38.60
2022-12-16T09:08:56.242Z,43.23
2022-12-16T09:11:41.808Z,37.90
2022-12-16T09:14:27.200Z,38.40
2022-12-16T09:17:12.840Z,44.10
2022-12-16T09:19:59.504Z,45.50
2022-12-16T09:22:44.991Z,47.20
2022-12-16T09:25:30.280Z,47.03
2022-12-16T09:28:15.806Z,43.70
2022-12-16T09:31:01.259Z,38.20
2022-12-16T09:33:46.686Z,38.60
2022-12-16T09:36:33.846Z,42.87
2022-12-16T09:39:19.290Z,40.00
2022-12-16T09:42:19.849Z,36.80
2022-12-16T09:45:14.059Z,41.07
2022-12-16T09:48:07.977Z,37.50
2022-12-16T09:50:58.855Z,33.03
2022-12-16T09:53:47.200Z,36.23
2022-12-16T09:56:35.589Z,38.83
2022-12-16T09:59:25.917Z,37.10
2022-12-16T10:02:12.361Z,37.13
2022-12-16T10:04:57.799Z,39.40
2022-12-16T10:07:49.220Z,39.40
2022-12-16T10:10:45.436Z,35.87
2022-12-16T10:13:40.839Z,39.40
2022-12-16T10:16:33.829Z,36.03
2022-12-16T10:19:28.896Z,36.03
2022-12-16T10:22:23.843Z,43.47
2022-12-16T10:25:17.132Z,40.50
2022-12-16T10:28:08.457Z,37.60
2022-12-16T10:30:57.147Z,36.33
2022-12-16T10:33:47.355Z,31.90
2022-12-16T10:36:36.157Z,35.13
2022-12-16T10:39:25.450Z,37.13
2022-12-16T10:42:12.611Z,37.93
2022-12-16T10:45:07.856Z,40.30
2022-12-16T10:47:54.310Z,45.10
2022-12-16T10:50:36.836Z,37.80
2022-12-16T10:53:30.039Z,41.13
2022-12-16T10:56:26.845Z,37.57
2022-12-16T10:59:14.340Z,36.93
2022-12-16T11:02:01.011Z,38.80
2022-12-16T11:04:59.608Z,36.70
2022-12-16T11:07:53.397Z,38.13
2022-12-16T11:10:51.621Z,34.70
2022-12-16T11:13:41.627Z,43.10
2022-12-16T11:16:34.081Z,33.73
2022-12-16T11:19:23.500Z,42.30
2022-12-16T11:22:08.911Z,35.83
2022-12-16T11:24:54.446Z,39.17
2022-12-16T11:27:44.439Z,39.97
2022-12-16T11:30:37.998Z,34.70
2022-12-16T11:33:31.258Z,40.97
2022-12-16T11:36:25.058Z,37.87
2022-12-16T11:39:11.926Z,35.13
2022-12-16T11:42:00.227Z,36.73
2022-12-16T11:44:51.611Z,32.03
2022-12-16T11:47:44.898Z,40.37
2022-12-16T11:50:34.608Z,35.17
2022-12-16T11:53:23.617Z,36.27
2022-12-16T11:56:16.028Z,28.50
2022-12-16T11:59:06.642Z,36.47
2022-12-16T12:01:55.497Z,35.90
2022-12-16T12:04:41.292Z,37.80
2022-12-16T12:07:45.846Z,41.00
2022-12-16T12:10:56.018Z,40.97
2022-12-16T12:13:57.763Z,38.27
2022-12-16T12:16:53.172Z,32.90
2022-12-16T12:19:44.341Z,37.33
2022-12-16T12:22:38.449Z,33.17
2022-12-16T12:25:28.938Z,35.77
2022-12-16T12:28:26.331Z,31.30
2022-12-16T12:31:20.836Z,36.50
2022-12-16T12:34:18.211Z,39.47
2022-12-16T12:37:12.181Z,33.53
2022-12-16T12:40:04.756Z,33.67
2022-12-16T12:42:56.681Z,32.00
2022-12-16T12:46:09.159Z,28.27
2022-12-16T12:49:01.571Z,31.30
2022-12-16T12:51:54.284Z,37.07
2022-12-16T12:54:50.287Z,28.40
2022-12-16T12:57:39.273Z,29.63
2022-12-16T13:00:32.996Z,28.77
2022-12-16T13:03:25.962Z,35.10
2022-12-16T13:06:12.670Z,37.53
2022-12-16T13:09:12.350Z,33.80
2022-12-16T13:11:58.779Z,35.60
2022-12-16T13:15:12.357Z,31.80
2022-12-16T13:18:38.504Z,27.73
2022-12-16T13:21:46.870Z,31.03
2022-12-16T13:24:58.765Z,34.27
2022-12-16T13:27:45.669Z,36.77
2022-12-16T13:30:40.295Z,28.93
2022-12-16T13:33:39.629Z,27.60
2022-12-16T13:36:33.181Z,31.40
2022-12-16T13:39:26.737Z,33.90
2022-12-16T13:42:17.737Z,32.40
2022-12-16T13:45:17.235Z,30.13
2022-12-16T13:48:21.110Z,31.77
2022-12-16T13:51:08.404Z,32.55
2022-12-16T13:54:00.124Z,23.40
2022-12-16T13:56:55.062Z,25.83
2022-12-16T13:59:44.426Z,28.30
2022-12-16T14:02:53.944Z,26.30
2022-12-16T14:06:00.247Z,25.03
2022-12-16T14:08:51.226Z,31.87
2022-12-16T14:11:43.900Z,27.27
2022-12-16T14:14:37.737Z,27.97
2022-12-16T14:17:34.641Z,24.03
2022-12-16T14:20:28.061Z,23.30
2022-12-16T14:23:47.180Z,23.87
2022-12-16T14:26:29.534Z,25.07
2022-12-16T14:29:16.644Z,27.20
2022-12-16T14:32:03.021Z,32.60
2022-12-16T14:34:50.908Z,24.53
2022-12-16T14:37:38.424Z,24.50
2022-12-16T14:40:37.377Z,30.90
2022-12-16T14:43:28.850Z,24.83
2022-12-16T14:46:15.473Z,31.80
2022-12-16T14:49:04.915Z,32.40
2022-12-16T14:52:03.265Z,33.67
2022-12-16T14:54:54.797Z,27.37
2022-12-16T14:57:42.184Z,25.43
2022-12-16T15:00:33.981Z,26.23
2022-12-16T15:03:33.040Z,28.10
2022-12-16T15:06:21.840Z,21.77
2022-12-16T15:09:09.196Z,28.83
2022-12-16T15:11:55.814Z,25.50
2022-12-16T15:14:46.153Z,33.00
2022-12-16T15:17:38.986Z,20.23
2022-12-16T15:20:34.798Z,22.17
2022-12-16T15:23:20.231Z,24.73
2022-12-16T15:26:11.129Z,30.43
2022-12-16T15:28:58.275Z,26.20
2022-12-16T15:31:46.032Z,27.03
2022-12-16T15:34:46.652Z,26.10
2022-12-16T15:37:39.804Z,22.10
2022-12-16T15:40:39.367Z,25.87
2022-12-16T15:43:24.784Z,27.20
2022-12-16T15:46:10.487Z,24.30
2022-12-16T15:48:56.772Z,28.37
2022-12-16T15:51:48.255Z,25.57
2022-12-16T15:54:37.374Z,25.80
2022-12-16T15:57:38.376Z,24.47
2022-12-16T16:00:38.423Z,29.97
2022-12-16T16:03:23.127Z,26.17
2022-12-16T16:06:09.115Z,22.90
2022-12-16T16:08:58.002Z,25.47
2022-12-16T16:11:44.481Z,27.90
2022-12-16T16:14:29.865Z,24.70
2022-12-16T16:17:15.238Z,31.27
2022-12-16T16:20:03.682Z,24.27
2022-12-16T16:22:49.199Z,24.77
2022-12-16T16:25:34.604Z,22.23
2022-12-16T16:28:21.504Z,25.97
2022-12-16T16:31:06.939Z,27.50
2022-12-16T16:33:52.335Z,20.50
2022-12-16T16:36:38.092Z,25.30
2022-12-16T16:39:23.213Z,23.87
2022-12-16T16:42:08.551Z,25.67
2022-12-16T16:44:55.315Z,24.07
2022-12-16T16:47:40.753Z,23.30
2022-12-16T16:50:31.254Z,26.73
2022-12-16T16:53:16.676Z,23.30
2022-12-16T16:56:02.115Z,20.37
2022-12-16T16:58:50.069Z,24.80
2022-12-16T17:01:37.451Z,23.93
2022-12-16T17:04:23.312Z,23.67
2022-12-16T17:07:08.577Z,27.07
2022-12-16T17:09:53.943Z,27.03
2022-12-16T17:12:43.662Z,28.87
2022-12-16T17:15:38.195Z,27.63
2022-12-16T17:18:26.163Z,31.03
2022-12-16T17:21:12.045Z,22.70
2022-12-16T17:23:57.425Z,21.93
2022-12-16T17:26:43.387Z,25.83
2022-12-16T17:29:36.887Z,31.20
2022-12-16T17:32:22.282Z,24.10
2022-12-16T17:35:08.980Z,24.90
2022-12-16T17:37:54.341Z,31.47
2022-12-16T17:40:39.877Z,28.93
2022-12-16T17:43:25.212Z,25.23
2022-12-16T17:46:22.256Z,24.67
2022-12-16T17:49:09.614Z,25.23
2022-12-16T17:51:56.952Z,30.33
2022-12-16T17:54:42.455Z,31.50
2022-12-16T17:57:27.878Z,26.70
2022-12-16T18:00:13.357Z,26.57
2022-12-16T18:02:59.296Z,33.60
2022-12-16T18:05:45.085Z,30.40
2022-12-16T18:08:31.836Z,30.83
2022-12-16T18:11:17.813Z,30.57
2022-12-16T18:14:03.777Z,29.73
2022-12-16T18:16:49.849Z,31.50
2022-12-16T18:19:35.615Z,26.63
2022-12-16T18:22:21.632Z,32.57
2022-12-16T18:25:08.180Z,27.80
2022-12-16T18:27:57.220Z,26.27
2022-12-16T18:30:42.581Z,28.97
2022-12-16T18:33:27.998Z,27.60
2022-12-16T18:36:13.630Z,31.80
2022-12-16T18:38:59.025Z,33.00
2022-12-16T18:41:45.826Z,28.80
2022-12-16T18:44:32.675Z,29.60
2022-12-16T18:47:18.283Z,32.27
2022-12-16T18:50:03.684Z,30.40
2022-12-16T18:52:49.231Z,35.33
2022-12-16T18:55:34.726Z,30.37
2022-12-16T18:58:49.721Z,29.07
2022-12-16T19:01:32.117Z,23.23
2022-12-16T19:04:17.666Z,29.97
2022-12-16T19:07:04.477Z,31.43
2022-12-16T19:09:49.872Z,33.77
2022-12-16T19:12:40.739Z,31.50
2022-12-16T19:15:28.375Z,29.33
2022-12-16T19:18:13.687Z,33.70
2022-12-16T19:20:59.088Z,29.23
2022-12-16T19:23:44.480Z,32.90
2022-12-16T19:26:30.156Z,30.00
2022-12-16T19:29:15.575Z,29.43
2022-12-16T19:32:02.372Z,32.97
2022-12-16T19:34:59.001Z,25.90
2022-12-16T19:37:44.375Z,26.47
2022-12-16T19:40:29.880Z,24.43
2022-12-16T19:43:15.255Z,30.57
2022-12-16T19:46:00.797Z,37.20
2022-12-16T19:48:47.773Z,31.60
2022-12-16T19:51:33.226Z,30.23
2022-12-16T19:54:18.507Z,30.03
2022-12-16T19:57:03.825Z,26.80
2022-12-16T19:59:49.309Z,26.47
2022-12-16T20:02:34.924Z,30.30
2022-12-16T20:05:21.898Z,30.97
2022-12-16T20:08:07.301Z,20.50
2022-12-16T20:13:59.735Z,35.13
2022-12-16T20:16:45.257Z,27.40
2022-12-16T20:19:30.829Z,33.23
2022-12-16T20:22:17.734Z,34.57
2022-12-16T20:25:03.199Z,27.20
2022-12-16T20:27:48.712Z,30.80
2022-12-16T20:30:34.436Z,27.47
2022-12-16T20:33:19.980Z,30.00
2022-12-16T20:36:14.037Z,33.30
2022-12-16T20:39:00.493Z,31.57
2022-12-16T20:41:45.815Z,32.33
2022-12-16T20:44:31.405Z,28.83
2022-12-16T20:47:16.730Z,27.30
2022-12-16T20:50:02.232Z,32.93
2022-12-16T20:52:47.636Z,28.10
2022-12-16T20:55:34.448Z,24.67
2022-12-16T20:58:19.941Z,24.70
2022-12-16T21:01:10.026Z,25.63
2022-12-16T21:03:56.325Z,24.17
2022-12-16T21:06:41.708Z,22.60
2022-12-16T21:09:27.384Z,21.37
2022-12-16T21:12:14.104Z,27.73
2022-12-16T21:14:59.491Z,24.97
2022-12-16T21:17:44.992Z,27.33
2022-12-16T21:20:30.504Z,25.93
2022-12-16T21:23:19.368Z,22.73
2022-12-16T21:26:04.794Z,25.53
2022-12-16T21:28:51.819Z,22.27
2022-12-16T21:31:37.578Z,25.13
2022-12-16T21:34:22.741Z,32.50
2022-12-16T21:37:09.360Z,25.37
2022-12-16T21:39:54.501Z,26.40
2022-12-16T21:42:44.023Z,24.90
2022-12-16T21:45:31.256Z,23.27
2022-12-16T21:48:25.118Z,27.23
2022-12-16T21:51:10.960Z,18.80
2022-12-16T21:53:56.236Z,23.97
2022-12-16T21:56:42.236Z,21.57
2022-12-16T21:59:27.588Z,23.47
2022-12-16T22:02:14.351Z,30.87
2022-12-16T22:05:00.051Z,23.20
2022-12-16T22:07:45.299Z,20.67
2022-12-16T22:10:33.108Z,25.67
2022-12-16T22:13:19.055Z,24.53
2022-12-16T22:16:13.735Z,30.57
2022-12-16T22:19:00.488Z,19.20
2022-12-16T22:21:46.014Z,20.97
2022-12-16T22:24:31.594Z,25.53
2022-12-16T22:27:17.579Z,26.57
2022-12-16T22:30:02.989Z,25.90
2022-12-16T22:33:04.307Z,25.63
2022-12-16T22:35:50.950Z,21.97
2022-12-16T22:36:20.798Z,30.47
2022-12-16T22:38:36.606Z,20.47
2022-12-16T22:41:22.102Z,24.63
2022-12-16T22:44:07.540Z,26.00
2022-12-16T22:46:53.076Z,21.47
2022-12-16T22:49:41.472Z,23.70
2022-12-16T22:52:28.338Z,24.43
2022-12-16T22:55:13.778Z,24.20
2022-12-16T22:57:59.168Z,21.30
2022-12-16T23:00:26.776Z,19.53
2022-12-16T23:03:14.801Z,22.73
2022-12-16T23:06:00.317Z,24.23
2022-12-16T23:08:47.318Z,19.70
2022-12-16T23:11:37.881Z,23.40
2022-12-16T23:14:23.319Z,27.97
2022-12-16T23:17:08.879Z,22.43
2022-12-16T23:19:56.403Z,25.87
2022-12-16T23:22:41.872Z,24.17
2022-12-16T23:25:28.612Z,22.20
2022-12-16T23:28:14.095Z,19.33
2022-12-16T23:30:59.573Z,21.10
2022-12-16T23:33:44.239Z,26.53
2022-12-16T23:36:29.699Z,21.13
2022-12-16T23:39:15.278Z,25.13
2022-12-16T23:42:01.959Z,21.10
2022-12-16T23:44:52.238Z,21.50
2022-12-16T23:47:41.436Z,21.27
2022-12-16T23:50:27.286Z,20.17
2022-12-16T23:53:21.031Z,25.47
2022-12-16T23:56:06.280Z,21.13
2022-12-16T23:58:49.407Z,22.20
